Nearby METAR Reports

 

KFRG - , , USA
Distance from station: SSW 12mi, 20km
Updated: 02/24/2017 1:53pm
Clear
Clear
 Wind from SSW
Wind: SSW 12 mph , 19 km/h
Temperature: 63°F , 17°C
Dew Point: 54°F , 12°C
Humidity: 73%
Barometer: 29.91 inHg , 1012.9 hPa
Clouds: Clear
Visibility: 10 miles , 16 km
2017/02/24 18:53 KFRG 241853Z 20010KT 10SM CLR 17/12 A2991 RMK AO2 SLP127 T01720117
KISP - , , USA
Distance from station: ESE 14mi, 23km
Updated: 02/24/2017 1:56pm
Few Clouds
Few Clouds
 Wind from S
Wind: S 13 mph , 20 km/h, Gust: 22 mph , 35 km/h
Temperature: 61°F , 16°C
Dew Point: 54°F , 12°C
Humidity: 77%
Barometer: 29.91 inHg , 1012.9 hPa
Clouds: Few Clouds
Visibility: 10 miles , 16 km
Cloud details: Few Clouds 2000 ft
Few Clouds 25000 ft
2017/02/24 18:56 KISP 241856Z 19011G19KT 10SM FEW020 FEW250 16/12 A2991 RMK AO2 SLP128 T01610117
 
KBDR - , , USA
Distance from station: NNE 21mi, 34km
Updated: 02/24/2017 1:52pm
Clear
Clear
 Wind from S
Wind: S 16 mph , 26 km/h
Temperature: 64°F , 18°C
Dew Point: 52°F , 11°C
Humidity: 64%
Barometer: 29.89 inHg , 1012.2 hPa
Clouds: Clear
Visibility: 10 miles , 16 km
2017/02/24 18:52 KBDR 241852Z 19014KT 10SM CLR 18/11 A2989 RMK AO2 SLP121 T01780106
KHPN - , , USA
Distance from station: WNW 22mi, 35km
Updated: 02/24/2017 1:56pm
Few Clouds
Few Clouds
 Wind from S
Wind: S 14 mph , 22 km/h, Gust: 18 mph , 30 km/h
Temperature: 68°F , 20°C
Dew Point: 54°F , 12°C
Humidity: 60%
Barometer: 29.87 inHg , 1011.5 hPa
Clouds: Few Clouds
Visibility: 10 miles , 16 km
Cloud details: Few Clouds 3000 ft
2017/02/24 18:56 KHPN 241856Z 17012G16KT 10SM FEW030 20/12 A2987 RMK AO2 SLP115 T02000117
 
KHWV - , , USA
Distance from station: ESE 26mi, 41km
Updated: 02/24/2017 1:56pm
Clear
Clear
 Wind from S
Wind: S 14 mph , 22 km/h
Temperature: 61°F , 16°C
Dew Point: 54°F , 12°C
Humidity: 77%
Barometer: 29.93 inHg , 1013.5 hPa
Clouds: Clear
Visibility: 10 miles , 16 km
2017/02/24 18:56 KHWV 241856Z AUTO 18012KT 10SM CLR 16/12 A2993 RMK AO2 SLP135 T01560117 TSNO
KJFK - , , USA
Distance from station: SW 29mi, 46km
Updated: 02/24/2017 1:51pm
Few Clouds
Few Clouds
 Wind from S
Wind: S 23 mph , 37 km/h
Temperature: 63°F , 17°C
Dew Point: 52°F , 11°C
Humidity: 68%
Barometer: 29.90 inHg , 1012.5 hPa
Clouds: Few Clouds
Visibility: 10 miles , 16 km
Cloud details: Few Clouds 4500 ft
Few Clouds 30000 ft
2017/02/24 18:51 KJFK 241851Z 18020KT 10SM FEW045 FEW300 17/11 A2990 RMK AO2 SLP125 T01670111 $
 
KLGA - , , USA
Distance from station: WSW 29mi, 47km
Updated: 02/24/2017 1:51pm
Few Clouds
Few Clouds
 Wind from SSE
Wind: SSE 17 mph , 28 km/h
Temperature: 66°F , 19°C
Dew Point: 52°F , 11°C
Humidity: 60%
Barometer: 29.87 inHg , 1011.5 hPa
Clouds: Few Clouds
Visibility: 10 miles , 16 km
Cloud details: Few Clouds 4500 ft
Few Clouds 25000 ft
2017/02/24 18:51 KLGA 241851Z 16015KT 10SM FEW045 FEW250 19/11 A2987 RMK AO2 SLP116 T01940111 $